F\v Tenia — FPMH — position and weather

sailwx.info

Track history (hours):
 
Tides and Currents Weather Stations Pressure Air Temp Water Temp Dewpoint Dewpoint Depression Visibility Wind Speed Wind Dir Waves Ship Positions

F\v Tenia

Last reported at 2014-Sep-17 21:11 UTC. Time now 2014-Sep-18 19:45 UTC.
Position N 47°34' W 005°10'.

Length 22 m; draft 4 m.

Type: Fishing. MMSI: 227575000.

Date/timePositionNaut miles runAvg speedWind from/ knotsBaromVisibWave heightAir tempDewpointWater temp
2014-Sep-17 21:11N 47°34' W 005°10'70 6.6
2014-Sep-17 10:33N 47°41' W 003°26'4 4.3
2014-Sep-17 09:33N 47°44' W 003°22'0 0.0
2014-Sep-17 08:33N 47°44' W 003°22'0 0.0
2014-Sep-17 07:34N 47°44' W 003°22'0 0.0
2014-Sep-17 06:33N 47°44' W 003°22'0 0.0
2014-Sep-17 05:34N 47°44' W 003°22'0 0.0
2014-Sep-17 04:34N 47°44' W 003°22'0 0.0
2014-Sep-17 03:34N 47°44' W 003°22'5 4.9
2014-Sep-17 02:33N 47°41' W 003°27'  
2014-Sep-08 12:32N 47°38' W 003°23'5 5.6
2014-Sep-08 11:33N 47°44' W 003°22'0 0.1
2014-Sep-08 10:33N 47°44' W 003°22'0 0.0
2014-Sep-08 09:33N 47°44' W 003°22'0 0.0
2014-Sep-08 08:33N 47°44' W 003°22'0 0.0
2014-Sep-08 07:33N 47°44' W 003°22'0 0.0
2014-Sep-08 06:33N 47°44' W 003°22'0 0.0
2014-Sep-08 05:33N 47°44' W 003°22'4 3.6
2014-Sep-08 04:33N 47°41' W 003°25'  
Track history (hours):
 
Tides and Currents Weather Stations Pressure Air Temp Water Temp Dewpoint Dewpoint Depression Visibility Wind Speed Wind Dir Waves Ship Positions

F\v Tenia

Last reported at 2014-Sep-17 21:11 UTC. Time now 2014-Sep-18 19:45 UTC.
Position N 47°34' W 005°10'.

Length 22 m; draft 4 m.

Type: Fishing. MMSI: 227575000.

Date/timePositionNaut miles runAvg speedWind from/ knotsBaromVisibWave heightAir tempDewpointWater temp
2014-Sep-17 21:11N 47°34' W 005°10'70 6.6
2014-Sep-17 10:33N 47°41' W 003°26'4 4.3
2014-Sep-17 09:33N 47°44' W 003°22'0 0.0
2014-Sep-17 08:33N 47°44' W 003°22'0 0.0
2014-Sep-17 07:34N 47°44' W 003°22'0 0.0
2014-Sep-17 06:33N 47°44' W 003°22'0 0.0
2014-Sep-17 05:34N 47°44' W 003°22'0 0.0
2014-Sep-17 04:34N 47°44' W 003°22'0 0.0
2014-Sep-17 03:34N 47°44' W 003°22'5 4.9
2014-Sep-17 02:33N 47°41' W 003°27'  
2014-Sep-08 12:32N 47°38' W 003°23'5 5.6
2014-Sep-08 11:33N 47°44' W 003°22'0 0.1
2014-Sep-08 10:33N 47°44' W 003°22'0 0.0
2014-Sep-08 09:33N 47°44' W 003°22'0 0.0
2014-Sep-08 08:33N 47°44' W 003°22'0 0.0
2014-Sep-08 07:33N 47°44' W 003°22'0 0.0
2014-Sep-08 06:33N 47°44' W 003°22'0 0.0
2014-Sep-08 05:33N 47°44' W 003°22'4 3.6
2014-Sep-08 04:33N 47°41' W 003°25'  

Dump ship's entire track history